sensor_id;sensor_type;location;lat;lon;timestamp;pressure;altitude;pressure_sealevel;temperature;humidity
51829;BME280;37881;48.024;8.774;2023-11-22T00:00:59;94052.88;;;5.35;100.00
51829;BME280;37881;48.024;8.774;2023-11-22T00:03:25;94055.94;;;5.26;100.00
51829;BME280;37881;48.024;8.774;2023-11-22T00:05:52;94058.63;;;5.23;100.00
51829;BME280;37881;48.024;8.774;2023-11-22T00:08:19;94053.63;;;5.28;100.00
51829;BME280;37881;48.024;8.774;2023-11-22T00:10:46;94048.63;;;5.37;100.00
51829;BME280;37881;48.024;8.774;2023-11-22T00:13:12;94043.59;;;5.39;100.00
51829;BME280;37881;48.024;8.774;2023-11-22T00:15:39;94056.31;;;5.25;100.00
51829;BME280;37881;48.024;8.774;2023-11-22T00:18:06;94048.16;;;5.25;100.00
51829;BME280;37881;48.024;8.774;2023-11-22T00:20:32;94050.06;;;5.20;100.00
51829;BME280;37881;48.024;8.774;2023-11-22T00:23:00;94044.28;;;5.26;100.00
51829;BME280;37881;48.024;8.774;2023-11-22T00:25:27;94044.28;;;5.26;100.00
51829;BME280;37881;48.024;8.774;2023-11-22T00:27:53;94040.78;;;5.25;100.00
51829;BME280;37881;48.024;8.774;2023-11-22T00:30:21;94054.31;;;5.18;100.00
51829;BME280;37881;48.024;8.774;2023-11-22T00:32:49;94049.25;;;5.16;100.00
51829;BME280;37881;48.024;8.774;2023-11-22T00:35:16;94048.09;;;5.17;100.00
51829;BME280;37881;48.024;8.774;2023-11-22T00:37:43;94046.22;;;5.29;100.00
51829;BME280;37881;48.024;8.774;2023-11-22T00:40:10;94050.44;;;5.15;100.00
51829;BME280;37881;48.024;8.774;2023-11-22T00:42:37;94048.81;;;5.07;100.00
51829;BME280;37881;48.024;8.774;2023-11-22T00:45:06;94056.16;;;5.03;100.00
51829;BME280;37881;48.024;8.774;2023-11-22T00:47:33;94059.03;;;4.76;100.00
51829;BME280;37881;48.024;8.774;2023-11-22T00:50:00;94046.94;;;4.70;100.00
51829;BME280;37881;48.024;8.774;2023-11-22T00:52:28;94059.34;;;4.68;100.00
51829;BME280;37881;48.024;8.774;2023-11-22T00:54:55;94059.44;;;4.78;100.00
51829;BME280;37881;48.024;8.774;2023-11-22T00:57:22;94071.31;;;4.59;100.00
51829;BME280;37881;48.024;8.774;2023-11-22T00:59:48;94068.81;;;4.81;100.00
51829;BME280;37881;48.024;8.774;2023-11-22T01:02:16;94067.84;;;5.07;100.00
51829;BME280;37881;48.024;8.774;2023-11-22T01:04:43;94057.38;;;5.13;100.00
51829;BME280;37881;48.024;8.774;2023-11-22T01:07:10;94062.41;;;5.07;100.00
51829;BME280;37881;48.024;8.774;2023-11-22T01:09:37;94065.53;;;5.13;100.00
51829;BME280;37881;48.024;8.774;2023-11-22T01:12:04;94062.16;;;5.27;100.00
51829;BME280;37881;48.024;8.774;2023-11-22T01:14:30;94062.56;;;5.25;100.00
51829;BME280;37881;48.024;8.774;2023-11-22T01:16:57;94059.47;;;5.30;100.00
51829;BME280;37881;48.024;8.774;2023-11-22T01:19:24;94062.22;;;5.34;100.00
51829;BME280;37881;48.024;8.774;2023-11-22T01:21:52;94070.75;;;5.32;100.00
51829;BME280;37881;48.024;8.774;2023-11-22T01:24:19;94065.38;;;5.39;100.00
51829;BME280;37881;48.024;8.774;2023-11-22T01:26:46;94060.66;;;5.36;100.00
51829;BME280;37881;48.024;8.774;2023-11-22T01:29:13;94059.13;;;5.39;100.00
51829;BME280;37881;48.024;8.774;2023-11-22T01:31:39;94064.97;;;5.41;100.00
51829;BME280;37881;48.024;8.774;2023-11-22T01:34:08;94069.56;;;5.30;100.00
51829;BME280;37881;48.024;8.774;2023-11-22T01:36:41;94067.69;;;5.41;100.00
51829;BME280;37881;48.024;8.774;2023-11-22T01:39:08;94070.47;;;5.48;100.00
51829;BME280;37881;48.024;8.774;2023-11-22T01:41:34;94065.38;;;5.39;100.00
51829;BME280;37881;48.024;8.774;2023-11-22T01:44:01;94063.03;;;5.38;100.00
51829;BME280;37881;48.024;8.774;2023-11-22T01:46:29;94068.41;;;5.31;100.00
51829;BME280;37881;48.024;8.774;2023-11-22T01:48:56;94073.13;;;5.41;100.00
51829;BME280;37881;48.024;8.774;2023-11-22T01:51:23;94076.66;;;5.45;100.00
51829;BME280;37881;48.024;8.774;2023-11-22T01:53:53;94072.38;;;5.44;100.00
51829;BME280;37881;48.024;8.774;2023-11-22T01:56:23;94073.97;;;5.49;100.00
51829;BME280;37881;48.024;8.774;2023-11-22T01:58:50;94075.53;;;5.50;100.00
51829;BME280;37881;48.024;8.774;2023-11-22T02:01:17;94079.75;;;5.40;100.00
51829;BME280;37881;48.024;8.774;2023-11-22T02:03:45;94084.13;;;5.52;100.00
51829;BME280;37881;48.024;8.774;2023-11-22T02:06:15;94074.78;;;5.53;100.00
51829;BME280;37881;48.024;8.774;2023-11-22T02:08:43;94078.97;;;5.39;100.00
51829;BME280;37881;48.024;8.774;2023-11-22T02:11:10;94076.56;;;5.27;100.00
51829;BME280;37881;48.024;8.774;2023-11-22T02:13:37;94074.91;;;5.19;100.00
51829;BME280;37881;48.024;8.774;2023-11-22T02:16:04;94077.56;;;5.08;100.00
51829;BME280;37881;48.024;8.774;2023-11-22T02:18:31;94082.31;;;5.18;100.00
51829;BME280;37881;48.024;8.774;2023-11-22T02:20:58;94081.63;;;5.32;100.00
51829;BME280;37881;48.024;8.774;2023-11-22T02:23:24;94082.44;;;5.36;100.00
51829;BME280;37881;48.024;8.774;2023-11-22T02:25:51;94091.81;;;5.43;100.00
51829;BME280;37881;48.024;8.774;2023-11-22T02:28:18;94085.25;;;5.51;100.00
51829;BME280;37881;48.024;8.774;2023-11-22T02:30:45;94086.47;;;5.57;100.00
51829;BME280;37881;48.024;8.774;2023-11-22T02:33:11;94098.53;;;5.56;100.00
51829;BME280;37881;48.024;8.774;2023-11-22T02:35:38;94093.06;;;5.52;100.00
51829;BME280;37881;48.024;8.774;2023-11-22T02:38:05;94099.88;;;5.28;100.00
51829;BME280;37881;48.024;8.774;2023-11-22T02:40:32;94101.84;;;5.35;100.00
51829;BME280;37881;48.024;8.774;2023-11-22T02:42:59;94101.13;;;5.38;100.00
51829;BME280;37881;48.024;8.774;2023-11-22T02:45:33;94094.88;;;5.34;100.00
51829;BME280;37881;48.024;8.774;2023-11-22T02:48:00;94106.19;;;5.43;100.00
51829;BME280;37881;48.024;8.774;2023-11-22T02:50:30;94110.13;;;5.49;100.00
51829;BME280;37881;48.024;8.774;2023-11-22T02:53:01;94103.47;;;5.43;100.00
51829;BME280;37881;48.024;8.774;2023-11-22T02:55:28;94106.94;;;5.36;100.00
51829;BME280;37881;48.024;8.774;2023-11-22T02:57:55;94106.50;;;5.31;100.00
51829;BME280;37881;48.024;8.774;2023-11-22T03:00:22;94104.97;;;5.37;100.00
51829;BME280;37881;48.024;8.774;2023-11-22T03:02:50;94098.34;;;5.31;100.00
51829;BME280;37881;48.024;8.774;2023-11-22T03:05:21;94096.78;;;5.30;100.00
51829;BME280;37881;48.024;8.774;2023-11-22T03:07:48;94091.56;;;5.10;100.00
51829;BME280;37881;48.024;8.774;2023-11-22T03:10:17;94103.75;;;4.79;100.00
51829;BME280;37881;48.024;8.774;2023-11-22T03:12:44;94107.47;;;4.64;100.00
51829;BME280;37881;48.024;8.774;2023-11-22T03:15:11;94114.84;;;4.63;100.00
51829;BME280;37881;48.024;8.774;2023-11-22T03:17:38;94119.00;;;4.94;100.00
51829;BME280;37881;48.024;8.774;2023-11-22T03:20:06;94120.91;;;4.90;100.00
51829;BME280;37881;48.024;8.774;2023-11-22T03:22:38;94127.44;;;4.82;100.00
51829;BME280;37881;48.024;8.774;2023-11-22T03:25:05;94127.81;;;4.80;100.00
51829;BME280;37881;48.024;8.774;2023-11-22T03:27:33;94124.44;;;4.94;100.00
51829;BME280;37881;48.024;8.774;2023-11-22T03:30:00;94129.06;;;4.90;100.00
51829;BME280;37881;48.024;8.774;2023-11-22T03:32:26;94132.66;;;4.60;100.00
51829;BME280;37881;48.024;8.774;2023-11-22T03:34:55;94137.66;;;4.55;100.00
51829;BME280;37881;48.024;8.774;2023-11-22T03:37:23;94153.22;;;4.58;100.00
51829;BME280;37881;48.024;8.774;2023-11-22T03:39:50;94149.91;;;4.42;100.00
51829;BME280;37881;48.024;8.774;2023-11-22T03:42:17;94149.34;;;4.25;100.00
51829;BME280;37881;48.024;8.774;2023-11-22T03:44:44;94156.25;;;4.19;100.00
51829;BME280;37881;48.024;8.774;2023-11-22T03:47:11;94158.44;;;4.10;100.00
51829;BME280;37881;48.024;8.774;2023-11-22T03:49:39;94161.50;;;4.05;100.00
51829;BME280;37881;48.024;8.774;2023-11-22T03:52:05;94172.09;;;4.13;100.00
51829;BME280;37881;48.024;8.774;2023-11-22T03:54:32;94173.84;;;3.98;100.00
51829;BME280;37881;48.024;8.774;2023-11-22T03:56:59;94168.19;;;4.11;100.00
51829;BME280;37881;48.024;8.774;2023-11-22T03:59:25;94179.22;;;3.95;100.00
51829;BME280;37881;48.024;8.774;2023-11-22T04:01:52;94178.31;;;3.87;100.00
51829;BME280;37881;48.024;8.774;2023-11-22T04:04:19;94174.50;;;3.65;100.00
51829;BME280;37881;48.024;8.774;2023-11-22T04:06:46;94184.78;;;3.79;100.00
51829;BME280;37881;48.024;8.774;2023-11-22T04:09:13;94181.19;;;3.71;100.00
51829;BME280;37881;48.024;8.774;2023-11-22T04:11:40;94182.44;;;3.77;100.00
51829;BME280;37881;48.024;8.774;2023-11-22T04:14:06;94183.38;;;3.89;100.00
51829;BME280;37881;48.024;8.774;2023-11-22T04:16:34;94183.00;;;3.90;100.00
51829;BME280;37881;48.024;8.774;2023-11-22T04:19:01;94191.13;;;3.87;100.00
51829;BME280;37881;48.024;8.774;2023-11-22T04:21:28;94180.09;;;3.76;100.00
51829;BME280;37881;48.024;8.774;2023-11-22T04:23:55;94190.09;;;3.72;100.00
51829;BME280;37881;48.024;8.774;2023-11-22T04:26:23;94192.13;;;3.52;100.00
51829;BME280;37881;48.024;8.774;2023-11-22T04:28:51;94193.97;;;3.44;100.00
51829;BME280;37881;48.024;8.774;2023-11-22T04:31:18;94205.81;;;3.59;100.00
51829;BME280;37881;48.024;8.774;2023-11-22T04:33:44;94201.91;;;3.56;100.00
51829;BME280;37881;48.024;8.774;2023-11-22T04:36:11;94200.53;;;3.20;100.00
51829;BME280;37881;48.024;8.774;2023-11-22T04:38:38;94208.53;;;3.59;100.00
51829;BME280;37881;48.024;8.774;2023-11-22T04:41:05;94210.59;;;3.43;100.00
51829;BME280;37881;48.024;8.774;2023-11-22T04:43:32;94213.78;;;3.25;100.00
51829;BME280;37881;48.024;8.774;2023-11-22T04:45:58;94220.69;;;3.42;100.00
51829;BME280;37881;48.024;8.774;2023-11-22T04:48:25;94220.94;;;3.60;100.00
51829;BME280;37881;48.024;8.774;2023-11-22T04:50:52;94221.69;;;3.57;100.00
51829;BME280;37881;48.024;8.774;2023-11-22T04:53:19;94233.63;;;3.52;100.00
51829;BME280;37881;48.024;8.774;2023-11-22T04:55:46;94234.88;;;3.35;100.00
51829;BME280;37881;48.024;8.774;2023-11-22T04:58:13;94254.41;;;3.22;100.00
51829;BME280;37881;48.024;8.774;2023-11-22T05:00:39;94244.34;;;3.22;100.00
51829;BME280;37881;48.024;8.774;2023-11-22T05:03:06;94256.25;;;2.94;100.00
51829;BME280;37881;48.024;8.774;2023-11-22T05:05:34;94260.53;;;2.76;100.00
51829;BME280;37881;48.024;8.774;2023-11-22T05:08:01;94273.34;;;2.98;100.00
51829;BME280;37881;48.024;8.774;2023-11-22T05:10:29;94271.56;;;2.67;100.00
51829;BME280;37881;48.024;8.774;2023-11-22T05:12:56;94275.16;;;2.52;100.00
51829;BME280;37881;48.024;8.774;2023-11-22T05:15:28;94289.94;;;2.38;100.00
51829;BME280;37881;48.024;8.774;2023-11-22T05:17:55;94316.69;;;2.59;100.00
51829;BME280;37881;48.024;8.774;2023-11-22T05:20:22;94309.00;;;2.42;100.00
51829;BME280;37881;48.024;8.774;2023-11-22T05:22:49;94306.97;;;2.39;100.00
51829;BME280;37881;48.024;8.774;2023-11-22T05:25:16;94313.44;;;2.34;100.00
51829;BME280;37881;48.024;8.774;2023-11-22T05:27:43;94310.75;;;2.34;100.00
51829;BME280;37881;48.024;8.774;2023-11-22T05:30:10;94315.09;;;2.04;100.00
51829;BME280;37881;48.024;8.774;2023-11-22T05:32:37;94323.81;;;1.97;100.00
51829;BME280;37881;48.024;8.774;2023-11-22T05:35:05;94316.53;;;2.17;100.00
51829;BME280;37881;48.024;8.774;2023-11-22T05:37:36;94315.66;;;2.29;100.00
51829;BME280;37881;48.024;8.774;2023-11-22T05:40:04;94317.34;;;2.17;100.00
51829;BME280;37881;48.024;8.774;2023-11-22T05:42:32;94302.69;;;2.03;100.00
51829;BME280;37881;48.024;8.774;2023-11-22T05:44:58;94306.66;;;2.25;100.00
51829;BME280;37881;48.024;8.774;2023-11-22T05:47:25;94306.75;;;2.28;100.00
51829;BME280;37881;48.024;8.774;2023-11-22T05:49:52;94310.66;;;2.31;100.00
51829;BME280;37881;48.024;8.774;2023-11-22T05:52:19;94305.97;;;2.28;100.00
51829;BME280;37881;48.024;8.774;2023-11-22T05:54:47;94311.13;;;2.17;100.00
51829;BME280;37881;48.024;8.774;2023-11-22T05:57:14;94312.00;;;2.21;100.00
51829;BME280;37881;48.024;8.774;2023-11-22T05:59:41;94321.53;;;2.15;100.00
51829;BME280;37881;48.024;8.774;2023-11-22T06:02:08;94321.53;;;2.15;100.00
51829;BME280;37881;48.024;8.774;2023-11-22T06:04:35;94316.22;;;2.03;100.00
51829;BME280;37881;48.024;8.774;2023-11-22T06:07:04;94321.28;;;2.04;100.00
51829;BME280;37881;48.024;8.774;2023-11-22T06:09:31;94327.75;;;1.68;100.00
51829;BME280;37881;48.024;8.774;2023-11-22T06:11:58;94329.13;;;1.46;100.00
51829;BME280;37881;48.024;8.774;2023-11-22T06:14:24;94332.94;;;1.45;100.00
51829;BME280;37881;48.024;8.774;2023-11-22T06:16:51;94342.00;;;1.36;100.00
51829;BME280;37881;48.024;8.774;2023-11-22T06:19:19;94340.56;;;1.71;100.00
51829;BME280;37881;48.024;8.774;2023-11-22T06:21:45;94357.22;;;1.57;100.00
51829;BME280;37881;48.024;8.774;2023-11-22T06:24:12;94353.41;;;1.74;100.00
51829;BME280;37881;48.024;8.774;2023-11-22T06:26:43;94365.81;;;1.59;100.00
51829;BME280;37881;48.024;8.774;2023-11-22T06:29:13;94372.09;;;1.63;100.00
51829;BME280;37881;48.024;8.774;2023-11-22T06:31:40;94380.63;;;1.49;100.00
51829;BME280;37881;48.024;8.774;2023-11-22T06:34:07;94376.66;;;1.47;100.00
51829;BME280;37881;48.024;8.774;2023-11-22T06:36:33;94374.56;;;1.40;100.00
51829;BME280;37881;48.024;8.774;2023-11-22T06:39:00;94388.72;;;1.49;100.00
51829;BME280;37881;48.024;8.774;2023-11-22T06:41:27;94393.25;;;1.45;100.00
51829;BME280;37881;48.024;8.774;2023-11-22T06:43:55;94392.25;;;1.66;100.00
51829;BME280;37881;48.024;8.774;2023-11-22T06:46:22;94397.13;;;1.32;100.00
51829;BME280;37881;48.024;8.774;2023-11-22T06:48:49;94407.72;;;1.37;100.00
51829;BME280;37881;48.024;8.774;2023-11-22T06:51:16;94406.91;;;1.36;100.00
51829;BME280;37881;48.024;8.774;2023-11-22T06:53:45;94405.09;;;1.40;100.00
51829;BME280;37881;48.024;8.774;2023-11-22T06:56:12;94419.25;;;1.50;100.00
51829;BME280;37881;48.024;8.774;2023-11-22T06:58:39;94425.06;;;1.36;100.00
51829;BME280;37881;48.024;8.774;2023-11-22T07:01:07;94424.28;;;1.35;100.00
51829;BME280;37881;48.024;8.774;2023-11-22T07:03:33;94426.94;;;1.19;100.00
51829;BME280;37881;48.024;8.774;2023-11-22T07:06:00;94428.53;;;1.08;100.00
51829;BME280;37881;48.024;8.774;2023-11-22T07:08:28;94434.44;;;0.86;100.00
51829;BME280;37881;48.024;8.774;2023-11-22T07:10:55;94432.50;;;0.98;100.00
51829;BME280;37881;48.024;8.774;2023-11-22T07:13:23;94445.91;;;0.95;100.00
51829;BME280;37881;48.024;8.774;2023-11-22T07:15:51;94451.31;;;0.95;100.00
51829;BME280;37881;48.024;8.774;2023-11-22T07:18:18;94451.56;;;0.90;100.00
51829;BME280;37881;48.024;8.774;2023-11-22T07:20:45;94455.69;;;0.99;100.00
51829;BME280;37881;48.024;8.774;2023-11-22T07:23:14;94456.38;;;0.84;100.00
51829;BME280;37881;48.024;8.774;2023-11-22T07:25:42;94458.19;;;0.92;100.00
51829;BME280;37881;48.024;8.774;2023-11-22T07:28:10;94468.75;;;1.10;100.00
51829;BME280;37881;48.024;8.774;2023-11-22T07:30:36;94458.44;;;1.28;100.00
51829;BME280;37881;48.024;8.774;2023-11-22T07:33:05;94468.44;;;1.39;100.00
51829;BME280;37881;48.024;8.774;2023-11-22T07:35:33;94460.63;;;1.50;100.00
51829;BME280;37881;48.024;8.774;2023-11-22T07:38:00;94465.28;;;1.37;100.00
51829;BME280;37881;48.024;8.774;2023-11-22T07:40:27;94462.38;;;1.30;100.00
51829;BME280;37881;48.024;8.774;2023-11-22T07:42:54;94466.34;;;1.49;100.00
51829;BME280;37881;48.024;8.774;2023-11-22T07:45:21;94476.72;;;1.18;100.00
51829;BME280;37881;48.024;8.774;2023-11-22T07:47:49;94465.47;;;1.45;100.00
51829;BME280;37881;48.024;8.774;2023-11-22T07:50:16;94477.19;;;1.49;100.00
51829;BME280;37881;48.024;8.774;2023-11-22T07:52:42;94473.47;;;1.00;100.00
51829;BME280;37881;48.024;8.774;2023-11-22T07:55:10;94483.38;;;0.96;100.00
51829;BME280;37881;48.024;8.774;2023-11-22T07:57:40;94490.00;;;1.24;100.00
51829;BME280;37881;48.024;8.774;2023-11-22T08:00:07;94499.13;;;1.31;100.00
51829;BME280;37881;48.024;8.774;2023-11-22T08:02:34;94501.09;;;0.94;100.00
51829;BME280;37881;48.024;8.774;2023-11-22T08:05:06;94507.19;;;0.91;100.00
51829;BME280;37881;48.024;8.774;2023-11-22T08:07:37;94506.34;;;1.03;100.00
51829;BME280;37881;48.024;8.774;2023-11-22T08:10:08;94513.94;;;0.97;100.00
51829;BME280;37881;48.024;8.774;2023-11-22T08:12:48;94515.59;;;1.14;100.00
51829;BME280;37881;48.024;8.774;2023-11-22T08:15:17;94514.34;;;1.24;100.00
51829;BME280;37881;48.024;8.774;2023-11-22T08:17:46;94514.66;;;1.22;100.00
51829;BME280;37881;48.024;8.774;2023-11-22T08:20:13;94518.59;;;1.25;100.00
51829;BME280;37881;48.024;8.774;2023-11-22T08:22:44;94522.81;;;1.50;100.00
51829;BME280;37881;48.024;8.774;2023-11-22T08:25:12;94530.88;;;1.34;100.00
51829;BME280;37881;48.024;8.774;2023-11-22T08:27:40;94524.59;;;1.18;100.00
51829;BME280;37881;48.024;8.774;2023-11-22T08:30:08;94522.94;;;1.01;100.00
51829;BME280;37881;48.024;8.774;2023-11-22T08:32:43;94526.47;;;1.30;100.00
51829;BME280;37881;48.024;8.774;2023-11-22T08:35:11;94529.59;;;1.44;100.00
51829;BME280;37881;48.024;8.774;2023-11-22T08:37:40;94536.81;;;1.40;100.00
51829;BME280;37881;48.024;8.774;2023-11-22T08:40:09;94540.81;;;1.18;100.00
51829;BME280;37881;48.024;8.774;2023-11-22T08:42:41;94540.16;;;1.09;100.00
51829;BME280;37881;48.024;8.774;2023-11-22T08:45:08;94540.66;;;1.27;100.00
51829;BME280;37881;48.024;8.774;2023-11-22T08:47:35;94545.75;;;1.28;100.00
51829;BME280;37881;48.024;8.774;2023-11-22T08:50:02;94539.09;;;1.26;100.00
51829;BME280;37881;48.024;8.774;2023-11-22T08:52:30;94536.69;;;1.49;100.00
51829;BME280;37881;48.024;8.774;2023-11-22T08:54:59;94530.03;;;1.46;100.00
51829;BME280;37881;48.024;8.774;2023-11-22T08:57:27;94538.84;;;1.43;100.00
51829;BME280;37881;48.024;8.774;2023-11-22T08:59:54;94542.16;;;1.65;100.00
51829;BME280;37881;48.024;8.774;2023-11-22T09:02:21;94551.31;;;1.60;100.00
51829;BME280;37881;48.024;8.774;2023-11-22T09:04:49;94551.31;;;1.60;100.00
51829;BME280;37881;48.024;8.774;2023-11-22T09:07:16;94558.56;;;1.44;100.00
51829;BME280;37881;48.024;8.774;2023-11-22T09:09:42;94553.81;;;1.53;100.00
51829;BME280;37881;48.024;8.774;2023-11-22T09:12:09;94558.56;;;1.44;100.00
51829;BME280;37881;48.024;8.774;2023-11-22T09:14:40;94558.50;;;1.03;100.00
51829;BME280;37881;48.024;8.774;2023-11-22T09:17:08;94555.81;;;1.15;100.00
51829;BME280;37881;48.024;8.774;2023-11-22T09:19:36;94569.44;;;1.19;100.00
51829;BME280;37881;48.024;8.774;2023-11-22T09:22:04;94555.25;;;1.10;100.00
51829;BME280;37881;48.024;8.774;2023-11-22T09:24:35;94558.84;;;0.89;100.00
51829;BME280;37881;48.024;8.774;2023-11-22T09:27:03;94556.94;;;0.90;100.00
51829;BME280;37881;48.024;8.774;2023-11-22T09:29:32;94564.69;;;0.54;100.00
51829;BME280;37881;48.024;8.774;2023-11-22T09:32:02;94556.72;;;0.83;100.00
51829;BME280;37881;48.024;8.774;2023-11-22T09:34:28;94553.19;;;1.31;100.00
51829;BME280;37881;48.024;8.774;2023-11-22T09:36:56;94555.66;;;1.36;100.00
51829;BME280;37881;48.024;8.774;2023-11-22T09:39:23;94553.66;;;1.74;100.00
51829;BME280;37881;48.024;8.774;2023-11-22T09:41:51;94551.22;;;1.56;100.00
51829;BME280;37881;48.024;8.774;2023-11-22T09:44:19;94556.44;;;1.49;100.00
51829;BME280;37881;48.024;8.774;2023-11-22T09:46:48;94553.13;;;1.56;100.00
51829;BME280;37881;48.024;8.774;2023-11-22T09:49:20;94558.75;;;1.63;100.00
51829;BME280;37881;48.024;8.774;2023-11-22T09:51:51;94560.56;;;1.99;100.00
51829;BME280;37881;48.024;8.774;2023-11-22T09:54:18;94561.03;;;2.17;100.00
51829;BME280;37881;48.024;8.774;2023-11-22T09:56:47;94561.06;;;1.36;100.00
51829;BME280;37881;48.024;8.774;2023-11-22T09:59:18;94551.38;;;1.76;100.00
51829;BME280;37881;48.024;8.774;2023-11-22T10:01:50;94557.13;;;1.34;100.00
51829;BME280;37881;48.024;8.774;2023-11-22T10:04:19;94554.75;;;1.73;100.00
51829;BME280;37881;48.024;8.774;2023-11-22T10:06:46;94566.53;;;1.52;100.00
51829;BME280;37881;48.024;8.774;2023-11-22T10:09:13;94562.28;;;1.51;100.00
51829;BME280;37881;48.024;8.774;2023-11-22T10:11:41;94572.47;;;1.70;100.00
51829;BME280;37881;48.024;8.774;2023-11-22T10:14:10;94573.59;;;1.82;100.00
51829;BME280;37881;48.024;8.774;2023-11-22T10:16:37;94580.00;;;1.77;100.00
51829;BME280;37881;48.024;8.774;2023-11-22T10:19:04;94578.56;;;1.79;100.00
51829;BME280;37881;48.024;8.774;2023-11-22T10:21:33;94582.09;;;1.96;100.00
51829;BME280;37881;48.024;8.774;2023-11-22T10:24:01;94579.31;;;2.36;100.00
51829;BME280;37881;48.024;8.774;2023-11-22T10:26:30;94595.03;;;2.31;100.00
51829;BME280;37881;48.024;8.774;2023-11-22T10:28:57;94588.72;;;2.27;100.00
51829;BME280;37881;48.024;8.774;2023-11-22T10:31:25;94591.44;;;2.27;100.00
51829;BME280;37881;48.024;8.774;2023-11-22T10:33:53;94585.84;;;1.79;100.00
51829;BME280;37881;48.024;8.774;2023-11-22T10:36:23;94589.84;;;2.10;100.00
51829;BME280;37881;48.024;8.774;2023-11-22T10:38:50;94588.44;;;1.88;100.00
51829;BME280;37881;48.024;8.774;2023-11-22T10:41:21;94584.97;;;1.75;100.00
51829;BME280;37881;48.024;8.774;2023-11-22T10:43:53;94586.41;;;1.85;100.00
51829;BME280;37881;48.024;8.774;2023-11-22T10:46:27;94580.88;;;1.93;100.00
51829;BME280;37881;48.024;8.774;2023-11-22T10:48:54;94577.06;;;1.82;100.00
51829;BME280;37881;48.024;8.774;2023-11-22T10:51:22;94578.75;;;2.15;100.00
51829;BME280;37881;48.024;8.774;2023-11-22T10:53:51;94576.03;;;2.15;100.00
51829;BME280;37881;48.024;8.774;2023-11-22T10:56:22;94581.69;;;1.16;100.00
51829;BME280;37881;48.024;8.774;2023-11-22T10:58:51;94580.72;;;1.09;100.00
51829;BME280;37881;48.024;8.774;2023-11-22T11:01:25;94578.44;;;1.11;100.00
51829;BME280;37881;48.024;8.774;2023-11-22T11:04:02;94572.53;;;1.46;100.00
51829;BME280;37881;48.024;8.774;2023-11-22T11:06:35;94576.91;;;1.50;100.00
51829;BME280;37881;48.024;8.774;2023-11-22T11:09:04;94589.16;;;1.72;100.00
51829;BME280;37881;48.024;8.774;2023-11-22T11:11:37;94589.06;;;2.25;100.00
51829;BME280;37881;48.024;8.774;2023-11-22T11:14:06;94589.88;;;2.26;100.00
51829;BME280;37881;48.024;8.774;2023-11-22T11:16:37;94599.47;;;2.23;100.00
51829;BME280;37881;48.024;8.774;2023-11-22T11:19:05;94606.63;;;2.15;100.00
51829;BME280;37881;48.024;8.774;2023-11-22T11:21:34;94611.22;;;1.22;100.00
51829;BME280;37881;48.024;8.774;2023-11-22T11:24:01;94604.00;;;1.01;100.00
51829;BME280;37881;48.024;8.774;2023-11-22T11:26:34;94613.91;;;1.34;100.00
51829;BME280;37881;48.024;8.774;2023-11-22T11:29:04;94608.53;;;1.74;100.00
51829;BME280;37881;48.024;8.774;2023-11-22T11:31:33;94603.84;;;1.59;100.00
51829;BME280;37881;48.024;8.774;2023-11-22T11:34:05;94617.28;;;0.94;100.00
51829;BME280;37881;48.024;8.774;2023-11-22T11:36:32;94611.44;;;0.92;100.00
51829;BME280;37881;48.024;8.774;2023-11-22T11:39:06;94606.91;;;1.20;100.00
51829;BME280;37881;48.024;8.774;2023-11-22T11:41:41;94605.47;;;0.98;100.00
51829;BME280;37881;48.024;8.774;2023-11-22T11:44:08;94604.22;;;0.71;100.00
51829;BME280;37881;48.024;8.774;2023-11-22T11:46:39;94608.38;;;1.30;100.00
51829;BME280;37881;48.024;8.774;2023-11-22T11:49:08;94603.91;;;1.87;100.00
51829;BME280;37881;48.024;8.774;2023-11-22T11:51:35;94604.94;;;2.11;100.00
51829;BME280;37881;48.024;8.774;2023-11-22T11:54:03;94600.00;;;2.00;100.00
51829;BME280;37881;48.024;8.774;2023-11-22T11:56:33;94604.31;;;2.02;100.00
51829;BME280;37881;48.024;8.774;2023-11-22T11:59:01;94597.41;;;2.04;100.00
51829;BME280;37881;48.024;8.774;2023-11-22T12:01:29;94597.16;;;2.09;100.00
51829;BME280;37881;48.024;8.774;2023-11-22T12:04:02;94601.66;;;2.17;100.00
51829;BME280;37881;48.024;8.774;2023-11-22T12:06:29;94599.28;;;2.16;100.00
51829;BME280;37881;48.024;8.774;2023-11-22T12:09:00;94596.16;;;1.73;100.00
51829;BME280;37881;48.024;8.774;2023-11-22T12:11:27;94609.84;;;1.28;100.00
51829;BME280;37881;48.024;8.774;2023-11-22T12:13:57;94613.22;;;1.25;100.00
51829;BME280;37881;48.024;8.774;2023-11-22T12:16:25;94627.00;;;1.19;100.00
51829;BME280;37881;48.024;8.774;2023-11-22T12:18:54;94623.16;;;1.08;100.00
51829;BME280;37881;48.024;8.774;2023-11-22T12:21:21;94639.94;;;1.14;100.00
51829;BME280;37881;48.024;8.774;2023-11-22T12:23:48;94640.44;;;0.70;100.00
51829;BME280;37881;48.024;8.774;2023-11-22T12:26:19;94634.44;;;0.52;100.00
51829;BME280;37881;48.024;8.774;2023-11-22T12:28:48;94639.44;;;0.75;100.00
51829;BME280;37881;48.024;8.774;2023-11-22T12:31:29;94642.34;;;0.70;100.00
51829;BME280;37881;48.024;8.774;2023-11-22T12:34:02;94642.28;;;0.91;100.00
51829;BME280;37881;48.024;8.774;2023-11-22T12:36:29;94655.50;;;1.42;100.00
51829;BME280;37881;48.024;8.774;2023-11-22T12:38:56;94652.00;;;1.53;100.00
51829;BME280;37881;48.024;8.774;2023-11-22T12:41:26;94660.53;;;1.68;100.00
51829;BME280;37881;48.024;8.774;2023-11-22T12:44:05;94649.63;;;1.39;100.00
51829;BME280;37881;48.024;8.774;2023-11-22T12:46:53;94653.34;;;1.35;100.00
51829;BME280;37881;48.024;8.774;2023-11-22T12:49:28;94652.09;;;1.45;100.00
51829;BME280;37881;48.024;8.774;2023-11-22T12:51:56;94645.53;;;1.70;100.00
51829;BME280;37881;48.024;8.774;2023-11-22T12:54:26;94653.56;;;1.54;100.00
51829;BME280;37881;48.024;8.774;2023-11-22T12:56:53;94650.28;;;1.36;100.00
51829;BME280;37881;48.024;8.774;2023-11-22T12:59:26;94663.38;;;1.59;100.00
51829;BME280;37881;48.024;8.774;2023-11-22T13:02:00;94665.06;;;1.27;100.00
51829;BME280;37881;48.024;8.774;2023-11-22T13:04:28;94660.78;;;1.13;100.00